sensor_id;sensor_type;location;lat;lon;timestamp;pressure;altitude;pressure_sealevel;temperature;humidity
73267;BME280;61495;53.400;7.608;2022-09-12T00:01:14;101814.69;;;13.18;72.80
73267;BME280;61495;53.400;7.608;2022-09-12T00:03:39;101820.91;;;13.19;72.48
73267;BME280;61495;53.400;7.608;2022-09-12T00:06:15;101806.63;;;13.12;72.77
73267;BME280;61495;53.400;7.608;2022-09-12T00:08:40;101807.63;;;13.11;73.25
73267;BME280;61495;53.400;7.608;2022-09-12T00:11:08;101803.91;;;13.12;74.82
73267;BME280;61495;53.400;7.608;2022-09-12T00:13:35;101800.56;;;13.10;73.99
73267;BME280;61495;53.400;7.608;2022-09-12T00:16:00;101804.31;;;13.09;74.00
73267;BME280;61495;53.400;7.608;2022-09-12T00:18:26;101788.94;;;13.03;74.15
73267;BME280;61495;53.400;7.608;2022-09-12T00:20:51;101792.06;;;13.06;74.56
73267;BME280;61495;53.400;7.608;2022-09-12T00:23:17;101794.31;;;13.03;75.78
73267;BME280;61495;53.400;7.608;2022-09-12T00:25:44;101789.97;;;13.02;75.72
73267;BME280;61495;53.400;7.608;2022-09-12T00:28:11;101795.34;;;13.02;75.59
73267;BME280;61495;53.400;7.608;2022-09-12T00:30:44;101798.25;;;13.00;74.45
73267;BME280;61495;53.400;7.608;2022-09-12T00:33:10;101790.59;;;13.04;75.19
73267;BME280;61495;53.400;7.608;2022-09-12T00:35:50;101787.09;;;13.03;75.56
73267;BME280;61495;53.400;7.608;2022-09-12T00:38:17;101785.19;;;13.04;74.42
73267;BME280;61495;53.400;7.608;2022-09-12T00:40:43;101782.72;;;13.02;74.09
73267;BME280;61495;53.400;7.608;2022-09-12T00:45:57;101781.44;;;12.98;73.71
73267;BME280;61495;53.400;7.608;2022-09-12T00:48:34;101785.19;;;12.97;73.92
73267;BME280;61495;53.400;7.608;2022-09-12T00:51:03;101771.69;;;12.91;73.71
73267;BME280;61495;53.400;7.608;2022-09-12T00:53:29;101774.00;;;12.94;73.84
73267;BME280;61495;53.400;7.608;2022-09-12T00:55:55;101776.47;;;12.89;74.43
73267;BME280;61495;53.400;7.608;2022-09-12T00:58:28;101772.72;;;12.90;75.13
73267;BME280;61495;53.400;7.608;2022-09-12T01:00:55;101765.44;;;12.83;75.06
73267;BME280;61495;53.400;7.608;2022-09-12T01:03:22;101772.28;;;12.86;75.40
73267;BME280;61495;53.400;7.608;2022-09-12T01:08:24;101775.19;;;12.85;75.04
73267;BME280;61495;53.400;7.608;2022-09-12T01:10:51;101770.66;;;12.85;76.12
73267;BME280;61495;53.400;7.608;2022-09-12T01:13:16;101765.44;;;12.83;74.96
73267;BME280;61495;53.400;7.608;2022-09-12T01:15:42;101744.91;;;12.69;75.60
73267;BME280;61495;53.400;7.608;2022-09-12T01:31:54;101772.84;;;12.75;74.79
73267;BME280;61495;53.400;7.608;2022-09-12T01:34:53;101768.09;;;12.70;74.74
73267;BME280;61495;53.400;7.608;2022-09-12T01:37:40;101766.41;;;12.69;76.27
73267;BME280;61495;53.400;7.608;2022-09-12T01:40:21;101762.25;;;12.67;76.77
73267;BME280;61495;53.400;7.608;2022-09-12T01:42:58;101757.47;;;12.62;75.51
73267;BME280;61495;53.400;7.608;2022-09-12T01:45:32;101750.63;;;12.60;75.66
73267;BME280;61495;53.400;7.608;2022-09-12T01:48:18;101756.25;;;12.65;76.83
73267;BME280;61495;53.400;7.608;2022-09-12T01:50:58;101746.53;;;12.64;76.66
73267;BME280;61495;53.400;7.608;2022-09-12T01:53:29;101748.38;;;12.63;76.63
73267;BME280;61495;53.400;7.608;2022-09-12T01:56:16;101742.38;;;12.61;76.92
73267;BME280;61495;53.400;7.608;2022-09-12T01:59:15;101737.00;;;12.61;76.76
73267;BME280;61495;53.400;7.608;2022-09-12T02:01:57;101737.78;;;12.55;76.05
73267;BME280;61495;53.400;7.608;2022-09-12T02:04:28;101748.16;;;12.58;76.22
73267;BME280;61495;53.400;7.608;2022-09-12T02:07:07;101727.88;;;12.56;77.10
73267;BME280;61495;53.400;7.608;2022-09-12T02:09:42;101739.44;;;12.56;77.68
73267;BME280;61495;53.400;7.608;2022-09-12T02:12:14;101707.50;;;12.40;76.94
73267;BME280;61495;53.400;7.608;2022-09-12T02:14:51;101731.13;;;12.51;76.67
73267;BME280;61495;53.400;7.608;2022-09-12T02:17:23;101722.06;;;12.52;77.53
73267;BME280;61495;53.400;7.608;2022-09-12T02:22:42;101720.78;;;12.48;76.95
73267;BME280;61495;53.400;7.608;2022-09-12T02:25:11;101720.38;;;12.51;76.92
73267;BME280;61495;53.400;7.608;2022-09-12T02:28:08;101715.00;;;12.51;76.61
73267;BME280;61495;53.400;7.608;2022-09-12T02:30:42;101710.25;;;12.47;77.73
73267;BME280;61495;53.400;7.608;2022-09-12T02:36:02;101713.72;;;12.47;77.31
73267;BME280;61495;53.400;7.608;2022-09-12T02:38:40;101709.16;;;12.41;76.59
73267;BME280;61495;53.400;7.608;2022-09-12T02:41:09;101715.81;;;12.45;76.59
73267;BME280;61495;53.400;7.608;2022-09-12T02:43:36;101705.22;;;12.37;76.67
73267;BME280;61495;53.400;7.608;2022-09-12T02:46:05;101709.16;;;12.41;77.05
73267;BME280;61495;53.400;7.608;2022-09-12T02:48:34;101720.72;;;12.42;76.90
73267;BME280;61495;53.400;7.608;2022-09-12T02:51:03;101709.13;;;12.35;76.76
73267;BME280;61495;53.400;7.608;2022-09-12T02:53:29;101709.56;;;12.38;76.51
73267;BME280;61495;53.400;7.608;2022-09-12T02:55:55;101712.25;;;12.38;76.77
73267;BME280;61495;53.400;7.608;2022-09-12T02:58:25;101714.94;;;12.38;77.06
73267;BME280;61495;53.400;7.608;2022-09-12T03:06:50;101703.75;;;12.35;77.42
73267;BME280;61495;53.400;7.608;2022-09-12T03:09:42;101707.47;;;12.34;78.20
73267;BME280;61495;53.400;7.608;2022-09-12T03:12:42;101706.00;;;12.31;77.75
73267;BME280;61495;53.400;7.608;2022-09-12T03:23:32;101676.78;;;12.21;77.70
73267;BME280;61495;53.400;7.608;2022-09-12T03:26:08;101688.88;;;12.32;78.29
73267;BME280;61495;53.400;7.608;2022-09-12T03:28:36;101671.06;;;12.31;77.84
73267;BME280;61495;53.400;7.608;2022-09-12T03:31:17;101661.09;;;12.25;78.24
73267;BME280;61495;53.400;7.608;2022-09-12T03:33:44;101658.81;;;12.22;77.68
73267;BME280;61495;53.400;7.608;2022-09-12T03:36:22;101671.47;;;12.28;78.17
73267;BME280;61495;53.400;7.608;2022-09-12T03:38:48;101659.44;;;12.24;77.67
73267;BME280;61495;53.400;7.608;2022-09-12T03:41:13;101656.31;;;12.20;77.85
73267;BME280;61495;53.400;7.608;2022-09-12T03:43:39;101669.41;;;12.30;78.13
73267;BME280;61495;53.400;7.608;2022-09-12T03:46:04;101667.38;;;12.32;78.14
73267;BME280;61495;53.400;7.608;2022-09-12T03:48:30;101663.41;;;12.28;78.11
73267;BME280;61495;53.400;7.608;2022-09-12T03:51:08;101662.38;;;12.29;78.47
73267;BME280;61495;53.400;7.608;2022-09-12T03:53:34;101671.69;;;12.33;78.10
73267;BME280;61495;53.400;7.608;2022-09-12T03:56:04;101672.34;;;12.35;78.79
73267;BME280;61495;53.400;7.608;2022-09-12T03:58:30;101665.28;;;12.34;79.15
73267;BME280;61495;53.400;7.608;2022-09-12T04:00:56;101658.66;;;12.30;79.01
73267;BME280;61495;53.400;7.608;2022-09-12T04:03:21;101662.78;;;12.33;78.30
73267;BME280;61495;53.400;7.608;2022-09-12T04:05:47;101666.13;;;12.35;79.05
73267;BME280;61495;53.400;7.608;2022-09-12T04:08:13;101668.59;;;12.36;77.98
73267;BME280;61495;53.400;7.608;2022-09-12T04:10:39;101666.97;;;12.35;78.50
73267;BME280;61495;53.400;7.608;2022-09-12T04:13:04;101665.91;;;12.36;78.66
73267;BME280;61495;53.400;7.608;2022-09-12T04:15:29;101654.31;;;12.29;78.84
73267;BME280;61495;53.400;7.608;2022-09-12T04:17:55;101648.28;;;12.27;78.91
73267;BME280;61495;53.400;7.608;2022-09-12T04:20:20;101659.94;;;12.34;78.21
73267;BME280;61495;53.400;7.608;2022-09-12T04:22:46;101647.84;;;12.23;78.08
73267;BME280;61495;53.400;7.608;2022-09-12T04:25:11;101655.56;;;12.33;78.42
73267;BME280;61495;53.400;7.608;2022-09-12T04:27:37;101635.91;;;12.26;78.35
73267;BME280;61495;53.400;7.608;2022-09-12T04:30:04;101653.94;;;12.32;78.61
73267;BME280;61495;53.400;7.608;2022-09-12T04:32:29;101645.88;;;12.32;77.79
73267;BME280;61495;53.400;7.608;2022-09-12T04:34:55;101641.28;;;12.26;78.67
73267;BME280;61495;53.400;7.608;2022-09-12T04:37:21;101636.31;;;12.23;78.07
73267;BME280;61495;53.400;7.608;2022-09-12T04:39:47;101641.91;;;12.28;79.12
73267;BME280;61495;53.400;7.608;2022-09-12T04:42:14;101641.91;;;12.28;78.70
73267;BME280;61495;53.400;7.608;2022-09-12T04:44:39;101645.44;;;12.29;78.42
73267;BME280;61495;53.400;7.608;2022-09-12T04:47:04;101642.53;;;12.30;78.98
73267;BME280;61495;53.400;7.608;2022-09-12T04:49:30;101632.56;;;12.24;77.95
73267;BME280;61495;53.400;7.608;2022-09-12T04:51:55;101642.91;;;12.27;78.25
73267;BME280;61495;53.400;7.608;2022-09-12T04:54:21;101648.28;;;12.27;78.27
73267;BME280;61495;53.400;7.608;2022-09-12T04:56:48;101634.25;;;12.25;78.24
73267;BME280;61495;53.400;7.608;2022-09-12T04:59:16;101637.56;;;12.27;78.45
73267;BME280;61495;53.400;7.608;2022-09-12T05:01:41;101630.94;;;12.23;79.60
73267;BME280;61495;53.400;7.608;2022-09-12T05:04:08;101639.63;;;12.25;78.78
73267;BME280;61495;53.400;7.608;2022-09-12T05:06:35;101642.31;;;12.25;78.41
73267;BME280;61495;53.400;7.608;2022-09-12T05:09:03;101634.63;;;12.22;78.23
73267;BME280;61495;53.400;7.608;2022-09-12T05:11:30;101647.69;;;12.25;78.53
73267;BME280;61495;53.400;7.608;2022-09-12T05:13:57;101646.66;;;12.26;79.16
73267;BME280;61495;53.400;7.608;2022-09-12T05:16:24;101642.06;;;12.20;78.78
73267;BME280;61495;53.400;7.608;2022-09-12T05:18:50;101609.34;;;12.10;78.59
73267;BME280;61495;53.400;7.608;2022-09-12T05:21:18;101628.81;;;12.18;78.69
73267;BME280;61495;53.400;7.608;2022-09-12T05:23:44;101645.00;;;12.25;78.90
73267;BME280;61495;53.400;7.608;2022-09-12T05:26:13;101630.53;;;12.26;79.20
73267;BME280;61495;53.400;7.608;2022-09-12T05:28:40;101629.25;;;12.22;78.99
73267;BME280;61495;53.400;7.608;2022-09-12T05:31:17;101631.34;;;12.26;80.03
73267;BME280;61495;53.400;7.608;2022-09-12T05:33:45;101635.13;;;12.32;78.24
73267;BME280;61495;53.400;7.608;2022-09-12T05:36:19;101639.25;;;12.35;78.57
73267;BME280;61495;53.400;7.608;2022-09-12T05:38:45;101634.31;;;12.38;78.16
73267;BME280;61495;53.400;7.608;2022-09-12T05:41:17;101638.47;;;12.41;78.42
73267;BME280;61495;53.400;7.608;2022-09-12T05:43:43;101635.56;;;12.42;78.03
73267;BME280;61495;53.400;7.608;2022-09-12T05:46:14;101638.06;;;12.44;78.32
73267;BME280;61495;53.400;7.608;2022-09-12T05:48:42;101626.88;;;12.40;78.27
73267;BME280;61495;53.400;7.608;2022-09-12T05:51:16;101635.16;;;12.45;78.22
73267;BME280;61495;53.400;7.608;2022-09-12T05:53:44;101654.25;;;12.57;78.24
73267;BME280;61495;53.400;7.608;2022-09-12T05:56:17;101646.44;;;12.62;78.71
73267;BME280;61495;53.400;7.608;2022-09-12T05:58:44;101654.91;;;12.65;78.47
73267;BME280;61495;53.400;7.608;2022-09-12T06:01:15;101653.25;;;12.71;78.28
73267;BME280;61495;53.400;7.608;2022-09-12T06:06:07;101652.94;;;12.87;78.84
73267;BME280;61495;53.400;7.608;2022-09-12T06:08:34;101649.84;;;12.97;78.40
73267;BME280;61495;53.400;7.608;2022-09-12T06:11:04;101654.28;;;13.11;78.79
73267;BME280;61495;53.400;7.608;2022-09-12T06:13:31;101646.00;;;13.19;81.47
73267;BME280;61495;53.400;7.608;2022-09-12T06:18:34;101652.25;;;13.52;80.83
73267;BME280;61495;53.400;7.608;2022-09-12T06:21:10;101656.44;;;13.74;81.24
73267;BME280;61495;53.400;7.608;2022-09-12T06:23:37;101661.78;;;13.87;80.71
73267;BME280;61495;53.400;7.608;2022-09-12T06:26:04;101652.03;;;14.00;80.22
73267;BME280;61495;53.400;7.608;2022-09-12T06:28:31;101653.25;;;14.17;79.81
73267;BME280;61495;53.400;7.608;2022-09-12T06:31:05;101641.44;;;14.31;80.12
73267;BME280;61495;53.400;7.608;2022-09-12T06:33:34;101652.59;;;14.54;80.92
73267;BME280;61495;53.400;7.608;2022-09-12T06:36:05;101641.53;;;14.69;80.02
73267;BME280;61495;53.400;7.608;2022-09-12T06:38:31;101641.41;;;14.88;79.46
73267;BME280;61495;53.400;7.608;2022-09-12T06:40:57;101644.66;;;15.03;79.91
73267;BME280;61495;53.400;7.608;2022-09-12T06:43:25;101642.50;;;15.19;80.31
73267;BME280;61495;53.400;7.608;2022-09-12T06:45:50;101643.47;;;15.31;79.78
73267;BME280;61495;53.400;7.608;2022-09-12T06:48:16;101641.56;;;15.38;79.05
73267;BME280;61495;53.400;7.608;2022-09-12T06:50:41;101643.16;;;15.45;78.84
73267;BME280;61495;53.400;7.608;2022-09-12T06:53:06;101629.84;;;15.50;79.35
73267;BME280;61495;53.400;7.608;2022-09-12T06:55:32;101633.09;;;15.59;79.50
73267;BME280;61495;53.400;7.608;2022-09-12T06:57:58;101632.22;;;15.65;79.51
73267;BME280;61495;53.400;7.608;2022-09-12T07:00:23;101628.88;;;15.70;78.99
73267;BME280;61495;53.400;7.608;2022-09-12T07:02:53;101629.69;;;15.70;78.67
73267;BME280;61495;53.400;7.608;2022-09-12T07:05:18;101629.25;;;15.73;78.57
73267;BME280;61495;53.400;7.608;2022-09-12T07:07:44;101638.72;;;15.82;78.31
73267;BME280;61495;53.400;7.608;2022-09-12T07:10:09;101633.25;;;15.89;77.96
73267;BME280;61495;53.400;7.608;2022-09-12T07:12:36;101636.56;;;15.91;78.11
73267;BME280;61495;53.400;7.608;2022-09-12T07:15:01;101632.16;;;15.96;77.70
73267;BME280;61495;53.400;7.608;2022-09-12T07:17:27;101633.97;;;16.02;78.42
73267;BME280;61495;53.400;7.608;2022-09-12T07:19:53;101638.09;;;16.05;78.06
73267;BME280;61495;53.400;7.608;2022-09-12T07:22:18;101627.22;;;16.11;78.00
73267;BME280;61495;53.400;7.608;2022-09-12T07:24:43;101636.69;;;16.21;77.85
73267;BME280;61495;53.400;7.608;2022-09-12T07:27:10;101636.25;;;16.24;78.33
73267;BME280;61495;53.400;7.608;2022-09-12T07:29:35;101636.25;;;16.24;78.26
73267;BME280;61495;53.400;7.608;2022-09-12T07:32:00;101638.19;;;16.35;78.43
73267;BME280;61495;53.400;7.608;2022-09-12T07:34:26;101640.00;;;16.41;78.33
73267;BME280;61495;53.400;7.608;2022-09-12T07:36:52;101633.09;;;16.45;78.22
73267;BME280;61495;53.400;7.608;2022-09-12T07:39:17;101644.81;;;16.57;77.99
73267;BME280;61495;53.400;7.608;2022-09-12T07:41:42;101646.28;;;16.59;78.35
73267;BME280;61495;53.400;7.608;2022-09-12T07:44:11;101653.84;;;16.69;78.55
73267;BME280;61495;53.400;7.608;2022-09-12T07:46:36;101648.59;;;16.74;78.45
73267;BME280;61495;53.400;7.608;2022-09-12T07:49:02;101651.44;;;16.79;78.45
73267;BME280;61495;53.400;7.608;2022-09-12T07:51:29;101641.81;;;16.83;nan
73267;BME280;61495;53.400;7.608;2022-09-12T07:53:55;101639.09;;;16.83;77.97
73267;BME280;61495;53.400;7.608;2022-09-12T07:56:22;101635.03;;;16.92;77.99
73267;BME280;61495;53.400;7.608;2022-09-12T07:58:48;101629.16;;;16.95;77.53
73267;BME280;61495;53.400;7.608;2022-09-12T08:01:14;101640.25;;;17.05;77.78
73267;BME280;61495;53.400;7.608;2022-09-12T08:03:42;101633.06;;;17.11;77.92
73267;BME280;61495;53.400;7.608;2022-09-12T08:06:10;101635.94;;;17.16;77.36
73267;BME280;61495;53.400;7.608;2022-09-12T08:08:36;101616.38;;;17.14;77.94
73267;BME280;61495;53.400;7.608;2022-09-12T08:11:05;101636.09;;;17.33;77.62
73267;BME280;61495;53.400;7.608;2022-09-12T08:13:31;101631.25;;;17.35;76.89
73267;BME280;61495;53.400;7.608;2022-09-12T08:15:58;101629.28;;;17.42;76.50
73267;BME280;61495;53.400;7.608;2022-09-12T08:18:25;101625.41;;;17.49;76.87
73267;BME280;61495;53.400;7.608;2022-09-12T08:20:56;101628.63;;;17.58;76.54
73267;BME280;61495;53.400;7.608;2022-09-12T08:23:21;101628.88;;;17.68;76.07
73267;BME280;61495;53.400;7.608;2022-09-12T08:25:47;101636.06;;;17.74;75.84
73267;BME280;61495;53.400;7.608;2022-09-12T08:28:14;101625.81;;;17.76;75.30
73267;BME280;61495;53.400;7.608;2022-09-12T08:30:39;101631.50;;;17.86;75.02
73267;BME280;61495;53.400;7.608;2022-09-12T08:33:04;101629.16;;;17.90;75.08
73267;BME280;61495;53.400;7.608;2022-09-12T08:35:31;101629.59;;;17.98;75.32
73267;BME280;61495;53.400;7.608;2022-09-12T08:37:56;101628.19;;;18.07;74.91
73267;BME280;61495;53.400;7.608;2022-09-12T08:40:22;101631.94;;;18.18;74.51
73267;BME280;61495;53.400;7.608;2022-09-12T08:43:03;101624.16;;;18.21;74.48
73267;BME280;61495;53.400;7.608;2022-09-12T08:45:35;101629.56;;;18.33;74.27
73267;BME280;61495;53.400;7.608;2022-09-12T08:48:08;101612.94;;;18.29;74.07
73267;BME280;61495;53.400;7.608;2022-09-12T08:50:34;101621.75;;;18.48;74.16
73267;BME280;61495;53.400;7.608;2022-09-12T08:53:15;101624.38;;;18.55;73.92
73267;BME280;61495;53.400;7.608;2022-09-12T08:55:52;101614.69;;;18.59;73.18
73267;BME280;61495;53.400;7.608;2022-09-12T08:58:20;101616.66;;;18.63;73.20
73267;BME280;61495;53.400;7.608;2022-09-12T09:14:36;101616.66;;;19.03;72.19
73267;BME280;61495;53.400;7.608;2022-09-12T09:17:21;101620.28;;;19.09;71.74
73267;BME280;61495;53.400;7.608;2022-09-12T09:20:04;101622.25;;;19.13;71.38
73267;BME280;61495;53.400;7.608;2022-09-12T09:22:47;101622.66;;;19.22;72.05
73267;BME280;61495;53.400;7.608;2022-09-12T09:25:24;101621.66;;;19.39;71.96
73267;BME280;61495;53.400;7.608;2022-09-12T09:27:57;101615.00;;;19.47;71.47
73267;BME280;61495;53.400;7.608;2022-09-12T09:30:26;101612.63;;;19.51;71.09
73267;BME280;61495;53.400;7.608;2022-09-12T09:32:59;101620.50;;;19.69;71.00
73267;BME280;61495;53.400;7.608;2022-09-12T09:38:26;101625.13;;;19.85;69.91
73267;BME280;61495;53.400;7.608;2022-09-12T09:43:50;101605.16;;;19.96;69.71
73267;BME280;61495;53.400;7.608;2022-09-12T09:46:16;101593.09;;;20.09;69.74
73267;BME280;61495;53.400;7.608;2022-09-12T09:48:46;101599.81;;;20.23;69.11
73267;BME280;61495;53.400;7.608;2022-09-12T09:51:13;101605.75;;;20.36;69.19
73267;BME280;61495;53.400;7.608;2022-09-12T09:53:57;101590.63;;;20.45;68.48
73267;BME280;61495;53.400;7.608;2022-09-12T09:56:36;101594.09;;;20.63;68.90
73267;BME280;61495;53.400;7.608;2022-09-12T09:59:20;101591.53;;;20.78;67.86
73267;BME280;61495;53.400;7.608;2022-09-12T10:04:26;101581.88;;;20.92;66.89
73267;BME280;61495;53.400;7.608;2022-09-12T10:06:55;101576.03;;;21.05;66.84
73267;BME280;61495;53.400;7.608;2022-09-12T10:09:32;101551.44;;;21.00;66.21
73267;BME280;61495;53.400;7.608;2022-09-12T10:12:00;101569.94;;;21.25;66.67
73267;BME280;61495;53.400;7.608;2022-09-12T10:14:39;101569.47;;;21.33;66.18
73267;BME280;61495;53.400;7.608;2022-09-12T10:17:22;101561.91;;;21.40;65.81
73267;BME280;61495;53.400;7.608;2022-09-12T10:19:48;101575.03;;;21.48;66.46
73267;BME280;61495;53.400;7.608;2022-09-12T10:22:19;101561.63;;;21.41;64.04
73267;BME280;61495;53.400;7.608;2022-09-12T10:24:50;101563.09;;;21.54;65.84
73267;BME280;61495;53.400;7.608;2022-09-12T10:27:43;101561.75;;;21.56;65.27
73267;BME280;61495;53.400;7.608;2022-09-12T10:30:19;101565.06;;;21.58;65.21
73267;BME280;61495;53.400;7.608;2022-09-12T10:32:49;101548.69;;;21.58;65.63
73267;BME280;61495;53.400;7.608;2022-09-12T10:37:51;101566.81;;;21.80;64.32
73267;BME280;61495;53.400;7.608;2022-09-12T10:40:26;101552.72;;;21.88;64.63
73267;BME280;61495;53.400;7.608;2022-09-12T10:42:55;101541.28;;;21.91;64.73
73267;BME280;61495;53.400;7.608;2022-09-12T10:45:31;101554.75;;;22.12;65.41
73267;BME280;61495;53.400;7.608;2022-09-12T10:47:59;101558.34;;;22.18;65.22
73267;BME280;61495;53.400;7.608;2022-09-12T10:52:53;101556.72;;;22.27;64.24
73267;BME280;61495;53.400;7.608;2022-09-12T10:55:27;101554.25;;;22.26;62.22
73267;BME280;61495;53.400;7.608;2022-09-12T11:00:58;101550.78;;;22.40;61.66
73267;BME280;61495;53.400;7.608;2022-09-12T11:03:53;101547.25;;;22.45;61.10
73267;BME280;61495;53.400;7.608;2022-09-12T11:06:33;101551.91;;;22.54;61.71
73267;BME280;61495;53.400;7.608;2022-09-12T11:09:23;101544.81;;;22.63;61.89
73267;BME280;61495;53.400;7.608;2022-09-12T11:11:57;101532.56;;;22.66;63.03
73267;BME280;61495;53.400;7.608;2022-09-12T11:14:33;101536.69;;;22.68;60.81
73267;BME280;61495;53.400;7.608;2022-09-12T11:17:27;101534.50;;;22.81;61.26
73267;BME280;61495;53.400;7.608;2022-09-12T11:34:08;101508.81;;;23.32;59.58
73267;BME280;61495;53.400;7.608;2022-09-12T11:39:35;101514.84;;;23.59;59.70
73267;BME280;61495;53.400;7.608;2022-09-12T11:42:04;101507.72;;;23.68;58.08
73267;BME280;61495;53.400;7.608;2022-09-12T11:44:58;101512.59;;;23.76;57.81
73267;BME280;61495;53.400;7.608;2022-09-12T11:47:27;101511.50;;;23.77;59.19
73267;BME280;61495;53.400;7.608;2022-09-12T11:49:57;101508.19;;;23.86;58.46
73267;BME280;61495;53.400;7.608;2022-09-12T11:52:29;101503.25;;;23.88;55.29
73267;BME280;61495;53.400;7.608;2022-09-12T11:55:10;101503.75;;;24.00;57.70
73267;BME280;61495;53.400;7.608;2022-09-12T11:57:48;101494.72;;;24.04;57.46
73267;BME280;61495;53.400;7.608;2022-09-12T12:00:18;101484.56;;;24.15;56.50
73267;BME280;61495;53.400;7.608;2022-09-12T12:05:33;101482.25;;;24.37;55.55
73267;BME280;61495;53.400;7.608;2022-09-12T12:08:03;101481.13;;;24.43;56.10
73267;BME280;61495;53.400;7.608;2022-09-12T12:10:34;101479.97;;;24.54;56.83
73267;BME280;61495;53.400;7.608;2022-09-12T12:13:04;101477.16;;;24.64;54.62
73267;BME280;61495;53.400;7.608;2022-09-12T12:15:34;101473.16;;;24.85;56.75
73267;BME280;61495;53.400;7.608;2022-09-12T12:18:05;101487.25;;;25.08;55.70
73267;BME280;61495;53.400;7.608;2022-09-12T12:20:31;101469.13;;;25.12;56.14
73267;BME280;61495;53.400;7.608;2022-09-12T12:22:57;101467.66;;;25.19;54.13
73267;BME280;61495;53.400;7.608;2022-09-12T12:25:37;101478.19;;;25.36;53.29
73267;BME280;61495;53.400;7.608;2022-09-12T12:28:04;101470.38;;;25.53;54.24
73267;BME280;61495;53.400;7.608;2022-09-12T12:36:02;101436.22;;;25.64;52.76
73267;BME280;61495;53.400;7.608;2022-09-12T12:38:30;101468.22;;;25.98;51.99
73267;BME280;61495;53.400;7.608;2022-09-12T12:43:44;101450.56;;;26.04;50.87
73267;BME280;61495;53.400;7.608;2022-09-12T12:46:13;101460.25;;;26.20;51.66
73267;BME280;61495;53.400;7.608;2022-09-12T12:53:59;101436.56;;;26.24;48.52
73267;BME280;61495;53.400;7.608;2022-09-12T12:56:40;101432.84;;;26.33;48.56
73267;BME280;61495;53.400;7.608;2022-09-12T12:59:32;101437.81;;;26.50;47.85
73267;BME280;61495;53.400;7.608;2022-09-12T13:01:58;101436.03;;;26.59;50.11
73267;BME280;61495;53.400;7.608;2022-09-12T13:04:27;101423.31;;;26.63;49.19
73267;BME280;61495;53.400;7.608;2022-09-12T13:07:20;101422.03;;;26.74;47.99
73267;BME280;61495;53.400;7.608;2022-09-12T13:09:50;101426.50;;;26.70;48.14
73267;BME280;61495;53.400;7.608;2022-09-12T13:12:28;101415.50;;;26.70;46.43
73267;BME280;61495;53.400;7.608;2022-09-12T13:14:57;101410.91;;;26.84;49.48
73267;BME280;61495;53.400;7.608;2022-09-12T13:17:39;101412.75;;;27.02;47.08
73267;BME280;61495;53.400;7.608;2022-09-12T13:22:39;101412.16;;;27.05;49.78
73267;BME280;61495;53.400;7.608;2022-09-12T13:27:56;101406.47;;;27.16;48.08
73267;BME280;61495;53.400;7.608;2022-09-12T13:30:22;101411.19;;;27.29;47.24
73267;BME280;61495;53.400;7.608;2022-09-12T13:32:47;101410.47;;;27.37;48.38
73267;BME280;61495;53.400;7.608;2022-09-12T13:35:24;101405.06;;;27.32;45.58
73267;BME280;61495;53.400;7.608;2022-09-12T13:38:03;101394.28;;;27.49;48.05
73267;BME280;61495;53.400;7.608;2022-09-12T13:40:42;101395.28;;;27.53;47.68
73267;BME280;61495;53.400;7.608;2022-09-12T13:43:13;101392.03;;;27.51;48.64
73267;BME280;61495;53.400;7.608;2022-09-12T13:45:40;101385.81;;;27.59;48.04
73267;BME280;61495;53.400;7.608;2022-09-12T13:48:14;101371.25;;;27.45;45.80
73267;BME280;61495;53.400;7.608;2022-09-12T13:50:50;101374.50;;;27.61;46.90
73267;BME280;61495;53.400;7.608;2022-09-12T13:53:19;101366.16;;;27.52;46.86
73267;BME280;61495;53.400;7.608;2022-09-12T13:55:51;101371.34;;;27.53;48.11
73267;BME280;61495;53.400;7.608;2022-09-12T13:58:24;101376.00;;;27.39;46.11
73267;BME280;61495;53.400;7.608;2022-09-12T14:03:47;101371.63;;;27.25;44.60
73267;BME280;61495;53.400;7.608;2022-09-12T14:06:48;101348.56;;;27.21;45.78
73267;BME280;61495;53.400;7.608;2022-09-12T14:09:26;101356.31;;;27.32;47.44
73267;BME280;61495;53.400;7.608;2022-09-12T14:11:54;101355.34;;;27.42;49.12
73267;BME280;61495;53.400;7.608;2022-09-12T14:14:34;101359.16;;;27.41;46.88
73267;BME280;61495;53.400;7.608;2022-09-12T14:17:14;101350.72;;;27.24;45.42
73267;BME280;61495;53.400;7.608;2022-09-12T14:19:40;101354.50;;;27.28;47.54
73267;BME280;61495;53.400;7.608;2022-09-12T14:22:09;101343.00;;;27.26;47.21
73267;BME280;61495;53.400;7.608;2022-09-12T14:24:37;101342.06;;;27.30;49.13
73267;BME280;61495;53.400;7.608;2022-09-12T14:27:03;101335.22;;;27.28;48.23
73267;BME280;61495;53.400;7.608;2022-09-12T14:29:29;101322.69;;;27.22;49.34
73267;BME280;61495;53.400;7.608;2022-09-12T14:32:03;101330.84;;;27.27;48.02
73267;BME280;61495;53.400;7.608;2022-09-12T14:34:29;101326.78;;;27.11;46.79
73267;BME280;61495;53.400;7.608;2022-09-12T14:36:55;101321.66;;;27.04;47.33
73267;BME280;61495;53.400;7.608;2022-09-12T14:39:36;101323.00;;;27.07;47.71
73267;BME280;61495;53.400;7.608;2022-09-12T14:42:10;101320.25;;;27.07;48.13
73267;BME280;61495;53.400;7.608;2022-09-12T14:44:37;101325.13;;;27.10;49.02
73267;BME280;61495;53.400;7.608;2022-09-12T14:47:12;101311.78;;;26.89;46.42
73267;BME280;61495;53.400;7.608;2022-09-12T14:49:40;101317.88;;;26.86;47.14
73267;BME280;61495;53.400;7.608;2022-09-12T14:52:20;101319.50;;;26.87;48.75
73267;BME280;61495;53.400;7.608;2022-09-12T15:00:10;101307.13;;;26.71;48.53
73267;BME280;61495;53.400;7.608;2022-09-12T15:02:43;101318.34;;;26.75;49.87
73267;BME280;61495;53.400;7.608;2022-09-12T15:07:50;101296.31;;;26.61;49.42
73267;BME280;61495;53.400;7.608;2022-09-12T15:10:26;101299.16;;;26.56;48.86
73267;BME280;61495;53.400;7.608;2022-09-12T15:15:39;101297.34;;;26.52;50.27